Terminal Aerodrome Forecast
Issued by NWS St Louis, MO

Home | Current Version | Previous Version | Text Only | Print | Product List | Glossary On
Versions: 1 2 3 4 5 6 7 8 9 10 11 12 13 14 15 16 17 18 19 20 21 22 23 24 25 26 27 28 29 30 31 32 33 34 35 36 37 38 39 40
000
FTUS43 KLSX 222334
TAFCOU
TAF
KCOU 222334Z 2300/2324 18008KT P6SM VCTS BKN040CB
      TEMPO 2300/2303 VRB15G35KT 1SM +TSRAGS BR OVC010CB
     FM230300 22007KT 3SM -TSRA OVC020CB
     FM230600 24006KT 5SM -SHRA OVC035
     FM231200 24006KT P6SM BKN045
     FM231800 VRB03KT P6SM BKN035=

USA.gov is the U.S. government's official web portal to all federal, state and local government web resources and services.